sensor_id;sensor_type;location;lat;lon;timestamp;P1;durP1;ratioP1;P2;durP2;ratioP2
22248;SDS011;67538;52.180;5.646;2023-12-29T00:02:06;10.27;;;2.80;;
22248;SDS011;67538;52.180;5.646;2023-12-29T00:04:33;15.67;;;3.23;;
22248;SDS011;67538;52.180;5.646;2023-12-29T00:07:01;16.27;;;2.97;;
22248;SDS011;67538;52.180;5.646;2023-12-29T00:09:28;16.87;;;3.13;;
22248;SDS011;67538;52.180;5.646;2023-12-29T00:11:55;17.83;;;3.20;;
22248;SDS011;67538;52.180;5.646;2023-12-29T00:14:22;14.33;;;3.00;;
22248;SDS011;67538;52.180;5.646;2023-12-29T00:16:51;16.13;;;3.13;;
22248;SDS011;67538;52.180;5.646;2023-12-29T00:19:23;16.43;;;3.00;;
22248;SDS011;67538;52.180;5.646;2023-12-29T00:21:50;19.10;;;2.83;;
22248;SDS011;67538;52.180;5.646;2023-12-29T00:24:17;11.83;;;3.10;;
22248;SDS011;67538;52.180;5.646;2023-12-29T00:26:45;11.37;;;3.10;;
22248;SDS011;67538;52.180;5.646;2023-12-29T00:29:13;17.90;;;3.47;;
22248;SDS011;67538;52.180;5.646;2023-12-29T00:31:40;13.60;;;3.10;;
22248;SDS011;67538;52.180;5.646;2023-12-29T00:34:07;16.07;;;3.50;;
22248;SDS011;67538;52.180;5.646;2023-12-29T00:36:36;17.47;;;2.80;;
22248;SDS011;67538;52.180;5.646;2023-12-29T00:39:03;15.33;;;3.30;;
22248;SDS011;67538;52.180;5.646;2023-12-29T00:41:30;18.63;;;3.40;;
22248;SDS011;67538;52.180;5.646;2023-12-29T00:43:58;18.10;;;3.50;;
22248;SDS011;67538;52.180;5.646;2023-12-29T00:46:25;17.57;;;3.33;;
22248;SDS011;67538;52.180;5.646;2023-12-29T00:48:52;20.33;;;3.43;;
22248;SDS011;67538;52.180;5.646;2023-12-29T00:51:19;22.10;;;3.67;;
22248;SDS011;67538;52.180;5.646;2023-12-29T00:53:48;20.87;;;3.03;;
22248;SDS011;67538;52.180;5.646;2023-12-29T00:56:15;17.67;;;3.30;;
22248;SDS011;67538;52.180;5.646;2023-12-29T00:58:42;21.70;;;3.60;;
22248;SDS011;67538;52.180;5.646;2023-12-29T01:01:09;13.53;;;3.20;;
22248;SDS011;67538;52.180;5.646;2023-12-29T01:03:36;16.50;;;3.33;;
22248;SDS011;67538;52.180;5.646;2023-12-29T01:06:04;20.03;;;3.20;;
22248;SDS011;67538;52.180;5.646;2023-12-29T01:08:31;15.13;;;3.03;;
22248;SDS011;67538;52.180;5.646;2023-12-29T01:11:00;12.00;;;2.70;;
22248;SDS011;67538;52.180;5.646;2023-12-29T01:13:27;16.83;;;2.73;;
22248;SDS011;67538;52.180;5.646;2023-12-29T01:15:54;14.67;;;3.30;;
22248;SDS011;67538;52.180;5.646;2023-12-29T01:18:21;15.27;;;3.13;;
22248;SDS011;67538;52.180;5.646;2023-12-29T01:20:48;16.53;;;3.27;;
22248;SDS011;67538;52.180;5.646;2023-12-29T01:23:15;10.37;;;2.63;;
22248;SDS011;67538;52.180;5.646;2023-12-29T01:25:43;14.30;;;2.70;;
22248;SDS011;67538;52.180;5.646;2023-12-29T01:28:11;13.47;;;3.17;;
22248;SDS011;67538;52.180;5.646;2023-12-29T01:30:38;12.70;;;2.70;;
22248;SDS011;67538;52.180;5.646;2023-12-29T01:33:05;19.50;;;3.23;;
22248;SDS011;67538;52.180;5.646;2023-12-29T01:35:33;11.67;;;2.83;;
22248;SDS011;67538;52.180;5.646;2023-12-29T01:38:00;19.83;;;2.77;;
22248;SDS011;67538;52.180;5.646;2023-12-29T01:40:29;17.07;;;2.87;;
22248;SDS011;67538;52.180;5.646;2023-12-29T01:42:56;19.13;;;3.73;;
22248;SDS011;67538;52.180;5.646;2023-12-29T01:45:24;11.60;;;3.23;;
22248;SDS011;67538;52.180;5.646;2023-12-29T01:47:52;15.67;;;2.80;;
22248;SDS011;67538;52.180;5.646;2023-12-29T01:50:19;15.87;;;3.00;;
22248;SDS011;67538;52.180;5.646;2023-12-29T01:52:48;17.50;;;3.13;;
22248;SDS011;67538;52.180;5.646;2023-12-29T01:55:18;10.17;;;3.30;;
22248;SDS011;67538;52.180;5.646;2023-12-29T01:57:46;9.00;;;2.50;;
22248;SDS011;67538;52.180;5.646;2023-12-29T02:00:15;9.53;;;2.53;;
22248;SDS011;67538;52.180;5.646;2023-12-29T02:02:44;12.00;;;2.97;;
22248;SDS011;67538;52.180;5.646;2023-12-29T02:05:13;17.20;;;3.10;;
22248;SDS011;67538;52.180;5.646;2023-12-29T02:07:41;14.17;;;3.37;;
22248;SDS011;67538;52.180;5.646;2023-12-29T02:10:08;11.00;;;2.60;;
22248;SDS011;67538;52.180;5.646;2023-12-29T02:12:39;12.40;;;2.93;;
22248;SDS011;67538;52.180;5.646;2023-12-29T02:15:06;16.37;;;2.60;;
22248;SDS011;67538;52.180;5.646;2023-12-29T02:17:35;13.37;;;2.77;;
22248;SDS011;67538;52.180;5.646;2023-12-29T02:20:08;15.10;;;3.20;;
22248;SDS011;67538;52.180;5.646;2023-12-29T02:22:36;17.07;;;3.17;;
22248;SDS011;67538;52.180;5.646;2023-12-29T02:25:05;13.97;;;3.43;;
22248;SDS011;67538;52.180;5.646;2023-12-29T02:27:35;11.37;;;2.93;;
22248;SDS011;67538;52.180;5.646;2023-12-29T02:30:09;19.00;;;3.43;;
22248;SDS011;67538;52.180;5.646;2023-12-29T02:32:38;14.07;;;2.80;;
22248;SDS011;67538;52.180;5.646;2023-12-29T02:35:08;11.33;;;2.70;;
22248;SDS011;67538;52.180;5.646;2023-12-29T02:37:37;19.00;;;3.30;;
22248;SDS011;67538;52.180;5.646;2023-12-29T02:40:08;18.70;;;3.17;;
22248;SDS011;67538;52.180;5.646;2023-12-29T02:42:36;15.67;;;3.30;;
22248;SDS011;67538;52.180;5.646;2023-12-29T02:45:03;15.40;;;3.20;;
22248;SDS011;67538;52.180;5.646;2023-12-29T02:47:30;11.07;;;3.00;;
22248;SDS011;67538;52.180;5.646;2023-12-29T02:49:58;12.60;;;3.40;;
22248;SDS011;67538;52.180;5.646;2023-12-29T02:52:25;13.17;;;2.90;;
22248;SDS011;67538;52.180;5.646;2023-12-29T02:54:52;12.17;;;3.10;;
22248;SDS011;67538;52.180;5.646;2023-12-29T02:57:20;18.00;;;3.63;;
22248;SDS011;67538;52.180;5.646;2023-12-29T02:59:47;16.73;;;2.93;;
22248;SDS011;67538;52.180;5.646;2023-12-29T03:02:14;15.03;;;2.80;;
22248;SDS011;67538;52.180;5.646;2023-12-29T03:04:41;13.77;;;3.53;;
22248;SDS011;67538;52.180;5.646;2023-12-29T03:07:09;15.03;;;3.47;;
22248;SDS011;67538;52.180;5.646;2023-12-29T03:09:36;13.77;;;3.40;;
22248;SDS011;67538;52.180;5.646;2023-12-29T03:12:03;10.40;;;3.27;;
22248;SDS011;67538;52.180;5.646;2023-12-29T03:14:32;16.27;;;3.43;;
22248;SDS011;67538;52.180;5.646;2023-12-29T03:17:00;17.00;;;4.00;;
22248;SDS011;67538;52.180;5.646;2023-12-29T03:19:27;23.00;;;3.40;;
22248;SDS011;67538;52.180;5.646;2023-12-29T03:21:54;17.87;;;3.70;;
22248;SDS011;67538;52.180;5.646;2023-12-29T03:24:21;16.17;;;3.60;;
22248;SDS011;67538;52.180;5.646;2023-12-29T03:26:48;15.60;;;3.90;;
22248;SDS011;67538;52.180;5.646;2023-12-29T03:29:15;13.80;;;3.20;;
22248;SDS011;67538;52.180;5.646;2023-12-29T03:31:44;24.83;;;4.83;;
22248;SDS011;67538;52.180;5.646;2023-12-29T03:34:11;18.50;;;3.80;;
22248;SDS011;67538;52.180;5.646;2023-12-29T03:36:38;22.80;;;5.00;;
22248;SDS011;67538;52.180;5.646;2023-12-29T03:39:05;13.10;;;3.40;;
22248;SDS011;67538;52.180;5.646;2023-12-29T03:41:32;12.77;;;3.60;;
22248;SDS011;67538;52.180;5.646;2023-12-29T03:43:59;25.00;;;4.23;;
22248;SDS011;67538;52.180;5.646;2023-12-29T03:46:26;20.80;;;4.17;;
22248;SDS011;67538;52.180;5.646;2023-12-29T03:48:55;22.33;;;3.97;;
22248;SDS011;67538;52.180;5.646;2023-12-29T03:51:22;22.17;;;4.20;;
22248;SDS011;67538;52.180;5.646;2023-12-29T03:53:49;23.13;;;4.20;;
22248;SDS011;67538;52.180;5.646;2023-12-29T03:56:17;18.87;;;3.67;;
22248;SDS011;67538;52.180;5.646;2023-12-29T03:58:44;16.03;;;3.07;;
22248;SDS011;67538;52.180;5.646;2023-12-29T04:01:12;17.07;;;3.73;;
22248;SDS011;67538;52.180;5.646;2023-12-29T04:03:40;24.47;;;3.80;;
22248;SDS011;67538;52.180;5.646;2023-12-29T04:06:09;21.77;;;3.63;;
22248;SDS011;67538;52.180;5.646;2023-12-29T04:08:36;25.67;;;4.37;;
22248;SDS011;67538;52.180;5.646;2023-12-29T04:11:04;18.10;;;3.07;;
22248;SDS011;67538;52.180;5.646;2023-12-29T04:13:31;20.63;;;3.80;;
22248;SDS011;67538;52.180;5.646;2023-12-29T04:15:58;20.03;;;3.53;;
22248;SDS011;67538;52.180;5.646;2023-12-29T04:18:26;20.93;;;3.73;;
22248;SDS011;67538;52.180;5.646;2023-12-29T04:20:54;20.90;;;3.73;;
22248;SDS011;67538;52.180;5.646;2023-12-29T04:23:23;21.07;;;3.40;;
22248;SDS011;67538;52.180;5.646;2023-12-29T04:25:50;31.40;;;4.80;;
22248;SDS011;67538;52.180;5.646;2023-12-29T04:28:17;27.73;;;3.67;;
22248;SDS011;67538;52.180;5.646;2023-12-29T04:30:45;20.60;;;3.60;;
22248;SDS011;67538;52.180;5.646;2023-12-29T04:33:12;21.30;;;3.77;;
22248;SDS011;67538;52.180;5.646;2023-12-29T04:35:39;17.87;;;3.50;;
22248;SDS011;67538;52.180;5.646;2023-12-29T04:38:06;14.63;;;3.30;;
22248;SDS011;67538;52.180;5.646;2023-12-29T04:40:35;20.97;;;3.70;;
22248;SDS011;67538;52.180;5.646;2023-12-29T04:43:03;18.77;;;3.90;;
22248;SDS011;67538;52.180;5.646;2023-12-29T04:45:30;22.70;;;4.47;;
22248;SDS011;67538;52.180;5.646;2023-12-29T04:47:57;21.53;;;3.57;;
22248;SDS011;67538;52.180;5.646;2023-12-29T04:50:24;21.80;;;3.73;;
22248;SDS011;67538;52.180;5.646;2023-12-29T04:52:51;20.20;;;4.17;;
22248;SDS011;67538;52.180;5.646;2023-12-29T04:55:18;21.70;;;3.97;;
22248;SDS011;67538;52.180;5.646;2023-12-29T04:57:47;18.17;;;3.83;;
22248;SDS011;67538;52.180;5.646;2023-12-29T05:00:14;28.43;;;4.10;;
22248;SDS011;67538;52.180;5.646;2023-12-29T05:02:41;30.30;;;4.63;;
22248;SDS011;67538;52.180;5.646;2023-12-29T05:05:08;21.77;;;3.83;;
22248;SDS011;67538;52.180;5.646;2023-12-29T05:07:36;22.53;;;4.60;;
22248;SDS011;67538;52.180;5.646;2023-12-29T05:10:03;26.40;;;4.10;;
22248;SDS011;67538;52.180;5.646;2023-12-29T05:12:31;17.03;;;3.93;;
22248;SDS011;67538;52.180;5.646;2023-12-29T05:15:00;20.70;;;3.47;;
22248;SDS011;67538;52.180;5.646;2023-12-29T05:17:27;23.33;;;4.20;;
22248;SDS011;67538;52.180;5.646;2023-12-29T05:19:54;25.57;;;3.87;;
22248;SDS011;67538;52.180;5.646;2023-12-29T05:22:21;28.80;;;4.30;;
22248;SDS011;67538;52.180;5.646;2023-12-29T05:24:48;25.27;;;3.87;;
22248;SDS011;67538;52.180;5.646;2023-12-29T05:27:15;25.80;;;3.87;;
22248;SDS011;67538;52.180;5.646;2023-12-29T05:29:43;23.37;;;3.60;;
22248;SDS011;67538;52.180;5.646;2023-12-29T05:32:11;34.43;;;4.30;;
22248;SDS011;67538;52.180;5.646;2023-12-29T05:34:38;30.07;;;4.27;;
22248;SDS011;67538;52.180;5.646;2023-12-29T05:37:05;28.20;;;4.20;;
22248;SDS011;67538;52.180;5.646;2023-12-29T05:39:32;21.07;;;4.03;;
22248;SDS011;67538;52.180;5.646;2023-12-29T05:41:59;38.53;;;4.43;;
22248;SDS011;67538;52.180;5.646;2023-12-29T05:44:27;21.23;;;3.73;;
22248;SDS011;67538;52.180;5.646;2023-12-29T05:46:54;30.90;;;4.27;;
22248;SDS011;67538;52.180;5.646;2023-12-29T05:49:25;26.20;;;4.13;;
22248;SDS011;67538;52.180;5.646;2023-12-29T05:51:52;19.63;;;4.00;;
22248;SDS011;67538;52.180;5.646;2023-12-29T05:54:19;33.17;;;4.43;;
22248;SDS011;67538;52.180;5.646;2023-12-29T05:56:47;21.97;;;3.87;;
22248;SDS011;67538;52.180;5.646;2023-12-29T05:59:14;24.83;;;4.43;;
22248;SDS011;67538;52.180;5.646;2023-12-29T06:01:41;23.90;;;4.40;;
22248;SDS011;67538;52.180;5.646;2023-12-29T06:04:08;22.17;;;4.23;;
22248;SDS011;67538;52.180;5.646;2023-12-29T06:06:37;26.43;;;3.60;;
22248;SDS011;67538;52.180;5.646;2023-12-29T06:09:04;30.03;;;4.53;;
22248;SDS011;67538;52.180;5.646;2023-12-29T06:11:31;18.47;;;3.57;;
22248;SDS011;67538;52.180;5.646;2023-12-29T06:13:58;21.97;;;3.53;;
22248;SDS011;67538;52.180;5.646;2023-12-29T06:16:26;30.03;;;3.97;;
22248;SDS011;67538;52.180;5.646;2023-12-29T06:18:55;29.83;;;4.43;;
22248;SDS011;67538;52.180;5.646;2023-12-29T06:21:22;20.97;;;3.23;;
22248;SDS011;67538;52.180;5.646;2023-12-29T06:23:51;21.73;;;3.40;;
22248;SDS011;67538;52.180;5.646;2023-12-29T06:26:18;26.70;;;4.30;;
22248;SDS011;67538;52.180;5.646;2023-12-29T06:28:48;23.53;;;4.20;;
22248;SDS011;67538;52.180;5.646;2023-12-29T06:31:16;21.57;;;4.00;;
22248;SDS011;67538;52.180;5.646;2023-12-29T06:33:43;20.80;;;3.77;;
22248;SDS011;67538;52.180;5.646;2023-12-29T06:36:11;21.43;;;3.47;;
22248;SDS011;67538;52.180;5.646;2023-12-29T06:38:39;18.37;;;3.73;;
22248;SDS011;67538;52.180;5.646;2023-12-29T06:41:07;19.93;;;3.73;;
22248;SDS011;67538;52.180;5.646;2023-12-29T06:43:35;17.77;;;3.97;;
22248;SDS011;67538;52.180;5.646;2023-12-29T06:46:03;24.87;;;4.10;;
22248;SDS011;67538;52.180;5.646;2023-12-29T06:48:31;20.77;;;3.70;;
22248;SDS011;67538;52.180;5.646;2023-12-29T06:50:58;23.17;;;3.60;;
22248;SDS011;67538;52.180;5.646;2023-12-29T06:53:25;14.00;;;3.53;;
22248;SDS011;67538;52.180;5.646;2023-12-29T06:55:53;15.33;;;3.20;;
22248;SDS011;67538;52.180;5.646;2023-12-29T06:58:21;17.07;;;3.37;;
22248;SDS011;67538;52.180;5.646;2023-12-29T07:00:48;20.67;;;3.83;;
22248;SDS011;67538;52.180;5.646;2023-12-29T07:03:16;25.97;;;3.67;;
22248;SDS011;67538;52.180;5.646;2023-12-29T07:05:43;22.17;;;3.90;;
22248;SDS011;67538;52.180;5.646;2023-12-29T07:08:12;18.90;;;3.60;;
22248;SDS011;67538;52.180;5.646;2023-12-29T07:10:39;15.10;;;3.57;;
22248;SDS011;67538;52.180;5.646;2023-12-29T07:13:07;19.73;;;3.60;;
22248;SDS011;67538;52.180;5.646;2023-12-29T07:15:35;21.03;;;4.00;;
22248;SDS011;67538;52.180;5.646;2023-12-29T07:18:03;15.97;;;3.93;;
22248;SDS011;67538;52.180;5.646;2023-12-29T07:20:30;13.43;;;3.10;;
22248;SDS011;67538;52.180;5.646;2023-12-29T07:22:58;7.93;;;3.37;;
22248;SDS011;67538;52.180;5.646;2023-12-29T07:25:26;9.07;;;2.83;;
22248;SDS011;67538;52.180;5.646;2023-12-29T07:27:53;14.07;;;3.27;;
22248;SDS011;67538;52.180;5.646;2023-12-29T07:30:20;10.20;;;2.90;;
22248;SDS011;67538;52.180;5.646;2023-12-29T07:32:49;16.63;;;2.87;;
22248;SDS011;67538;52.180;5.646;2023-12-29T07:35:16;11.27;;;3.03;;
22248;SDS011;67538;52.180;5.646;2023-12-29T07:37:44;14.40;;;3.00;;
22248;SDS011;67538;52.180;5.646;2023-12-29T07:40:12;11.63;;;2.80;;
22248;SDS011;67538;52.180;5.646;2023-12-29T07:42:40;13.70;;;3.23;;
22248;SDS011;67538;52.180;5.646;2023-12-29T07:45:08;12.77;;;2.80;;
22248;SDS011;67538;52.180;5.646;2023-12-29T07:47:35;7.80;;;2.50;;
22248;SDS011;67538;52.180;5.646;2023-12-29T07:50:04;12.03;;;2.90;;
22248;SDS011;67538;52.180;5.646;2023-12-29T07:52:32;12.47;;;2.57;;
22248;SDS011;67538;52.180;5.646;2023-12-29T07:54:59;9.77;;;3.20;;
22248;SDS011;67538;52.180;5.646;2023-12-29T07:57:27;16.20;;;3.17;;
22248;SDS011;67538;52.180;5.646;2023-12-29T07:59:54;14.40;;;3.40;;
22248;SDS011;67538;52.180;5.646;2023-12-29T08:02:22;13.00;;;3.57;;
22248;SDS011;67538;52.180;5.646;2023-12-29T08:04:49;9.97;;;2.83;;
22248;SDS011;67538;52.180;5.646;2023-12-29T08:07:17;9.80;;;3.10;;
22248;SDS011;67538;52.180;5.646;2023-12-29T08:09:44;12.97;;;2.90;;
22248;SDS011;67538;52.180;5.646;2023-12-29T08:12:11;16.30;;;3.53;;
22248;SDS011;67538;52.180;5.646;2023-12-29T08:14:38;11.60;;;3.63;;
22248;SDS011;67538;52.180;5.646;2023-12-29T08:17:05;11.73;;;3.80;;
22248;SDS011;67538;52.180;5.646;2023-12-29T08:19:34;15.23;;;3.67;;
22248;SDS011;67538;52.180;5.646;2023-12-29T08:22:01;13.73;;;4.23;;
22248;SDS011;67538;52.180;5.646;2023-12-29T08:24:30;15.43;;;3.37;;
22248;SDS011;67538;52.180;5.646;2023-12-29T08:26:57;15.27;;;3.30;;
22248;SDS011;67538;52.180;5.646;2023-12-29T08:29:24;17.90;;;3.73;;
22248;SDS011;67538;52.180;5.646;2023-12-29T08:31:51;12.40;;;3.83;;
22248;SDS011;67538;52.180;5.646;2023-12-29T08:34:19;16.00;;;3.70;;
22248;SDS011;67538;52.180;5.646;2023-12-29T08:36:46;13.03;;;3.70;;
22248;SDS011;67538;52.180;5.646;2023-12-29T08:39:13;7.90;;;3.60;;
22248;SDS011;67538;52.180;5.646;2023-12-29T08:41:41;8.93;;;3.27;;
22248;SDS011;67538;52.180;5.646;2023-12-29T08:44:08;10.33;;;3.50;;
22248;SDS011;67538;52.180;5.646;2023-12-29T08:46:35;11.47;;;3.60;;
22248;SDS011;67538;52.180;5.646;2023-12-29T08:49:02;11.70;;;3.40;;
22248;SDS011;67538;52.180;5.646;2023-12-29T08:51:29;11.07;;;3.80;;
22248;SDS011;67538;52.180;5.646;2023-12-29T08:53:56;12.27;;;4.00;;
22248;SDS011;67538;52.180;5.646;2023-12-29T08:56:24;8.67;;;3.30;;
22248;SDS011;67538;52.180;5.646;2023-12-29T08:58:52;14.20;;;3.67;;
22248;SDS011;67538;52.180;5.646;2023-12-29T09:01:19;8.93;;;3.23;;
22248;SDS011;67538;52.180;5.646;2023-12-29T09:03:46;8.97;;;3.40;;
22248;SDS011;67538;52.180;5.646;2023-12-29T09:06:13;10.30;;;3.13;;
22248;SDS011;67538;52.180;5.646;2023-12-29T09:08:40;9.07;;;3.30;;
22248;SDS011;67538;52.180;5.646;2023-12-29T09:11:08;14.93;;;3.30;;
22248;SDS011;67538;52.180;5.646;2023-12-29T09:13:35;8.43;;;2.97;;
22248;SDS011;67538;52.180;5.646;2023-12-29T09:16:03;11.53;;;3.13;;
22248;SDS011;67538;52.180;5.646;2023-12-29T09:18:31;12.03;;;3.63;;
22248;SDS011;67538;52.180;5.646;2023-12-29T09:20:58;10.10;;;3.50;;
22248;SDS011;67538;52.180;5.646;2023-12-29T09:23:25;8.13;;;3.03;;
22248;SDS011;67538;52.180;5.646;2023-12-29T09:25:52;9.30;;;3.10;;
22248;SDS011;67538;52.180;5.646;2023-12-29T09:28:19;6.83;;;2.77;;
22248;SDS011;67538;52.180;5.646;2023-12-29T09:30:46;9.70;;;3.30;;
22248;SDS011;67538;52.180;5.646;2023-12-29T09:33:15;12.60;;;3.30;;
22248;SDS011;67538;52.180;5.646;2023-12-29T09:35:42;14.30;;;3.83;;
22248;SDS011;67538;52.180;5.646;2023-12-29T09:38:09;9.27;;;2.87;;
22248;SDS011;67538;52.180;5.646;2023-12-29T09:40:36;7.73;;;3.27;;
22248;SDS011;67538;52.180;5.646;2023-12-29T09:43:03;8.93;;;2.97;;
22248;SDS011;67538;52.180;5.646;2023-12-29T09:45:31;14.87;;;3.10;;
22248;SDS011;67538;52.180;5.646;2023-12-29T09:48:03;11.50;;;3.10;;
22248;SDS011;67538;52.180;5.646;2023-12-29T09:50:35;8.30;;;2.90;;
22248;SDS011;67538;52.180;5.646;2023-12-29T09:53:03;11.17;;;3.10;;
22248;SDS011;67538;52.180;5.646;2023-12-29T09:55:30;13.53;;;2.83;;
22248;SDS011;67538;52.180;5.646;2023-12-29T09:57:59;14.77;;;3.17;;
22248;SDS011;67538;52.180;5.646;2023-12-29T10:00:26;16.87;;;3.07;;
22248;SDS011;67538;52.180;5.646;2023-12-29T10:02:54;10.37;;;3.00;;
22248;SDS011;67538;52.180;5.646;2023-12-29T10:05:22;6.47;;;2.70;;
22248;SDS011;67538;52.180;5.646;2023-12-29T10:07:51;16.17;;;3.03;;
22248;SDS011;67538;52.180;5.646;2023-12-29T10:10:19;10.83;;;3.07;;
22248;SDS011;67538;52.180;5.646;2023-12-29T10:12:48;10.77;;;2.60;;
22248;SDS011;67538;52.180;5.646;2023-12-29T10:15:17;13.13;;;3.37;;
22248;SDS011;67538;52.180;5.646;2023-12-29T10:17:51;8.43;;;2.80;;
22248;SDS011;67538;52.180;5.646;2023-12-29T10:20:25;11.20;;;2.73;;
22248;SDS011;67538;52.180;5.646;2023-12-29T10:23:06;13.30;;;3.03;;
22248;SDS011;67538;52.180;5.646;2023-12-29T10:25:38;10.87;;;3.17;;
22248;SDS011;67538;52.180;5.646;2023-12-29T10:28:06;11.90;;;2.97;;
22248;SDS011;67538;52.180;5.646;2023-12-29T10:30:34;12.97;;;3.27;;
22248;SDS011;67538;52.180;5.646;2023-12-29T10:33:02;9.77;;;2.77;;
22248;SDS011;67538;52.180;5.646;2023-12-29T10:35:30;9.63;;;2.80;;
22248;SDS011;67538;52.180;5.646;2023-12-29T10:38:09;12.17;;;3.10;;
22248;SDS011;67538;52.180;5.646;2023-12-29T10:40:37;6.27;;;3.00;;
22248;SDS011;67538;52.180;5.646;2023-12-29T10:43:04;7.53;;;2.63;;
22248;SDS011;67538;52.180;5.646;2023-12-29T10:45:32;8.27;;;2.60;;
22248;SDS011;67538;52.180;5.646;2023-12-29T10:48:00;13.87;;;3.10;;
22248;SDS011;67538;52.180;5.646;2023-12-29T10:50:27;8.97;;;2.90;;
22248;SDS011;67538;52.180;5.646;2023-12-29T10:55:38;11.63;;;3.07;;
22248;SDS011;67538;52.180;5.646;2023-12-29T10:58:05;11.57;;;2.90;;
22248;SDS011;67538;52.180;5.646;2023-12-29T11:00:33;13.40;;;2.43;;
22248;SDS011;67538;52.180;5.646;2023-12-29T11:03:00;12.57;;;2.93;;
22248;SDS011;67538;52.180;5.646;2023-12-29T11:05:27;10.23;;;2.90;;
22248;SDS011;67538;52.180;5.646;2023-12-29T11:07:55;9.17;;;2.23;;
22248;SDS011;67538;52.180;5.646;2023-12-29T11:10:25;11.60;;;2.87;;
22248;SDS011;67538;52.180;5.646;2023-12-29T11:12:53;10.87;;;2.50;;
22248;SDS011;67538;52.180;5.646;2023-12-29T11:15:21;9.67;;;2.57;;
22248;SDS011;67538;52.180;5.646;2023-12-29T11:17:50;14.80;;;3.03;;
22248;SDS011;67538;52.180;5.646;2023-12-29T11:20:19;12.33;;;2.93;;
22248;SDS011;67538;52.180;5.646;2023-12-29T11:22:47;12.67;;;2.87;;
22248;SDS011;67538;52.180;5.646;2023-12-29T11:25:14;10.20;;;2.80;;
22248;SDS011;67538;52.180;5.646;2023-12-29T11:27:43;10.27;;;2.30;;
22248;SDS011;67538;52.180;5.646;2023-12-29T11:30:11;12.70;;;3.03;;
22248;SDS011;67538;52.180;5.646;2023-12-29T11:32:41;11.77;;;2.80;;
22248;SDS011;67538;52.180;5.646;2023-12-29T11:35:17;8.90;;;2.57;;
22248;SDS011;67538;52.180;5.646;2023-12-29T11:40:56;11.60;;;2.57;;
22248;SDS011;67538;52.180;5.646;2023-12-29T11:43:29;14.87;;;2.40;;
22248;SDS011;67538;52.180;5.646;2023-12-29T11:45:57;10.50;;;2.30;;
22248;SDS011;67538;52.180;5.646;2023-12-29T11:51:32;8.03;;;2.50;;
22248;SDS011;67538;52.180;5.646;2023-12-29T11:54:01;18.53;;;2.30;;
22248;SDS011;67538;52.180;5.646;2023-12-29T11:56:33;13.40;;;2.53;;
22248;SDS011;67538;52.180;5.646;2023-12-29T12:01:49;9.00;;;2.37;;
22248;SDS011;67538;52.180;5.646;2023-12-29T12:04:38;11.03;;;2.40;;
22248;SDS011;67538;52.180;5.646;2023-12-29T12:07:07;14.57;;;2.77;;
22248;SDS011;67538;52.180;5.646;2023-12-29T12:09:38;12.73;;;2.30;;
22248;SDS011;67538;52.180;5.646;2023-12-29T12:12:06;19.53;;;3.37;;
22248;SDS011;67538;52.180;5.646;2023-12-29T12:14:47;13.43;;;2.67;;
22248;SDS011;67538;52.180;5.646;2023-12-29T12:17:27;13.30;;;2.73;;
22248;SDS011;67538;52.180;5.646;2023-12-29T12:19:56;11.10;;;2.40;;
22248;SDS011;67538;52.180;5.646;2023-12-29T12:22:24;22.70;;;3.73;;
22248;SDS011;67538;52.180;5.646;2023-12-29T12:24:55;15.43;;;2.63;;
22248;SDS011;67538;52.180;5.646;2023-12-29T12:27:23;13.37;;;2.37;;
22248;SDS011;67538;52.180;5.646;2023-12-29T12:29:53;13.13;;;2.20;;
22248;SDS011;67538;52.180;5.646;2023-12-29T12:32:25;15.63;;;2.73;;
22248;SDS011;67538;52.180;5.646;2023-12-29T12:34:53;21.80;;;2.60;;
22248;SDS011;67538;52.180;5.646;2023-12-29T12:37:20;14.57;;;2.60;;
22248;SDS011;67538;52.180;5.646;2023-12-29T12:39:48;12.67;;;2.70;;
22248;SDS011;67538;52.180;5.646;2023-12-29T12:42:15;17.03;;;2.37;;
22248;SDS011;67538;52.180;5.646;2023-12-29T12:44:47;11.93;;;2.67;;
22248;SDS011;67538;52.180;5.646;2023-12-29T12:47:19;12.00;;;3.30;;
22248;SDS011;67538;52.180;5.646;2023-12-29T12:49:52;17.30;;;2.80;;
22248;SDS011;67538;52.180;5.646;2023-12-29T12:52:19;12.93;;;3.10;;
22248;SDS011;67538;52.180;5.646;2023-12-29T12:54:46;18.73;;;3.23;;
22248;SDS011;67538;52.180;5.646;2023-12-29T12:57:17;16.53;;;2.63;;
22248;SDS011;67538;52.180;5.646;2023-12-29T12:59:46;18.40;;;3.20;;
22248;SDS011;67538;52.180;5.646;2023-12-29T13:02:15;14.60;;;2.67;;
22248;SDS011;67538;52.180;5.646;2023-12-29T13:04:44;24.33;;;2.63;;
22248;SDS011;67538;52.180;5.646;2023-12-29T13:07:11;10.90;;;2.60;;
22248;SDS011;67538;52.180;5.646;2023-12-29T13:09:41;18.87;;;2.80;;
22248;SDS011;67538;52.180;5.646;2023-12-29T13:12:09;20.67;;;2.90;;
22248;SDS011;67538;52.180;5.646;2023-12-29T13:14:37;16.53;;;3.07;;
22248;SDS011;67538;52.180;5.646;2023-12-29T13:17:05;17.83;;;3.20;;
22248;SDS011;67538;52.180;5.646;2023-12-29T13:19:33;17.20;;;2.80;;
22248;SDS011;67538;52.180;5.646;2023-12-29T13:22:02;21.97;;;2.97;;
22248;SDS011;67538;52.180;5.646;2023-12-29T13:24:32;19.30;;;3.10;;
22248;SDS011;67538;52.180;5.646;2023-12-29T13:27:02;16.13;;;3.07;;
22248;SDS011;67538;52.180;5.646;2023-12-29T13:29:31;19.03;;;2.83;;
22248;SDS011;67538;52.180;5.646;2023-12-29T13:32:00;17.13;;;3.27;;
22248;SDS011;67538;52.180;5.646;2023-12-29T13:34:34;27.57;;;3.10;;
22248;SDS011;67538;52.180;5.646;2023-12-29T13:37:07;14.70;;;2.97;;
22248;SDS011;67538;52.180;5.646;2023-12-29T13:39:42;23.40;;;3.47;;
22248;SDS011;67538;52.180;5.646;2023-12-29T13:42:15;20.63;;;2.90;;
22248;SDS011;67538;52.180;5.646;2023-12-29T13:44:45;20.77;;;3.30;;
22248;SDS011;67538;52.180;5.646;2023-12-29T13:47:13;22.40;;;3.00;;
22248;SDS011;67538;52.180;5.646;2023-12-29T13:49:42;17.57;;;3.20;;
22248;SDS011;67538;52.180;5.646;2023-12-29T13:52:10;21.27;;;3.20;;
22248;SDS011;67538;52.180;5.646;2023-12-29T13:54:40;23.03;;;3.20;;
22248;SDS011;67538;52.180;5.646;2023-12-29T13:57:07;21.63;;;3.47;;
22248;SDS011;67538;52.180;5.646;2023-12-29T13:59:35;27.87;;;3.53;;
22248;SDS011;67538;52.180;5.646;2023-12-29T14:02:03;18.47;;;3.27;;
22248;SDS011;67538;52.180;5.646;2023-12-29T14:04:46;20.53;;;3.27;;
22248;SDS011;67538;52.180;5.646;2023-12-29T14:07:15;24.43;;;3.50;;
22248;SDS011;67538;52.180;5.646;2023-12-29T14:09:53;19.37;;;3.03;;
22248;SDS011;67538;52.180;5.646;2023-12-29T14:12:23;22.83;;;3.90;;
22248;SDS011;67538;52.180;5.646;2023-12-29T14:14:51;21.83;;;3.57;;
22248;SDS011;67538;52.180;5.646;2023-12-29T14:17:20;21.27;;;3.40;;
22248;SDS011;67538;52.180;5.646;2023-12-29T14:19:47;26.77;;;3.87;;
22248;SDS011;67538;52.180;5.646;2023-12-29T14:22:22;22.47;;;3.10;;
22248;SDS011;67538;52.180;5.646;2023-12-29T14:24:58;19.53;;;3.43;;
22248;SDS011;67538;52.180;5.646;2023-12-29T14:27:27;21.10;;;3.63;;
22248;SDS011;67538;52.180;5.646;2023-12-29T14:29:55;24.37;;;3.47;;
22248;SDS011;67538;52.180;5.646;2023-12-29T14:32:23;16.17;;;2.80;;
22248;SDS011;67538;52.180;5.646;2023-12-29T14:34:50;22.83;;;3.60;;
22248;SDS011;67538;52.180;5.646;2023-12-29T14:37:21;22.67;;;3.73;;
22248;SDS011;67538;52.180;5.646;2023-12-29T14:39:50;21.90;;;3.37;;
22248;SDS011;67538;52.180;5.646;2023-12-29T14:42:17;26.50;;;3.80;;
22248;SDS011;67538;52.180;5.646;2023-12-29T14:44:47;25.30;;;3.30;;
22248;SDS011;67538;52.180;5.646;2023-12-29T14:47:15;25.03;;;3.67;;
22248;SDS011;67538;52.180;5.646;2023-12-29T14:49:43;19.20;;;3.30;;
22248;SDS011;67538;52.180;5.646;2023-12-29T14:52:10;27.30;;;3.00;;
22248;SDS011;67538;52.180;5.646;2023-12-29T14:54:39;29.20;;;3.37;;